ADDS METAR Data INFO
IDs: Format: Raw Decoded Include TAF

Data at: 2050 UTC 24 Jun 2018

KMKN 242035Z AUTO 17020G25KT 10SM CLR 39/18 A2978 RMK AO2 T03860178
KMKN 242015Z AUTO 18014G25KT 10SM CLR 39/17 A2978 RMK AO2 T03850170
KMKN 241955Z AUTO 18013G22KT 10SM CLR 38/18 A2980 RMK AO2 LTG DSNT NW T03800180
KMKN 241935Z AUTO 17016G25KT 10SM CLR 38/18 A2981 RMK AO2 T03790183
KMKN 241915Z AUTO 16012G24KT 10SM CLR 37/19 A2982 RMK AO2 T03730186
KMKN 241855Z AUTO 16015G23KT 10SM CLR 37/19 A2982 RMK AO2 T03690188
KMKN 241835Z AUTO 17014G24KT 10SM CLR 36/19 A2983 RMK AO2 T03610191
KMKN 241815Z AUTO 17015G22KT 10SM CLR 36/20 A2984 RMK AO2 T03600199
KMKN 241755Z AUTO 18012G22KT 10SM CLR 35/20 A2985 RMK AO2 T03490200 10350 20245
KMKN 241735Z AUTO 17012G25KT 130V200 10SM CLR 34/20 A2985 RMK AO2 T03440203
KMKN 241715Z AUTO 19011G23KT 10SM CLR 34/21 A2985 RMK AO2 T03400205
KMKN 241655Z AUTO 20013G24KT 10SM CLR 33/21 A2985 RMK AO2 T03280206
KMKN 241635Z AUTO 16014G25KT 10SM CLR 33/21 A2985 RMK AO2 T03270205
KMKN 241615Z AUTO 19012G20KT 10SM CLR 32/20 A2986 RMK AO2 T03210204
KMKN 241555Z AUTO 20013G20KT 10SM CLR 31/20 A2986 RMK AO2 T03120201
KMKN 241535Z AUTO 20014G24KT 10SM CLR 30/20 A2985 RMK AO2 T03040200
KMKN 241515Z AUTO 18015G25KT 10SM CLR 30/20 A2985 RMK AO2 T02960201
KMKN 241455Z AUTO 19012G22KT 160V220 10SM SCT033 29/20 A2985 RMK AO2 T02940202
KMKN 241435Z AUTO 19012G23KT 10SM SCT031 29/20 A2984 RMK AO2 T02860202
KMKN 241415Z AUTO 10SM SCT028 27/20 A2984 RMK AO2 T02720202
KMKN 241355Z AUTO 10SM SCT028 27/20 A2983 RMK AO2 T02730204
KMKN 241335Z AUTO 10SM CLR 28/21 A2983 RMK AO2 T02750206
KMKN 241315Z AUTO 10SM CLR 27/21 A2982 RMK AO2 T02670208
KMKN 241255Z AUTO 10SM CLR 26/21 A2982 RMK AO2 T02610208
KMKN 241235Z AUTO 10SM CLR 25/21 A2981 RMK AO2 T02540210
KMKN 241215Z AUTO 10SM CLR 25/21 A2980 RMK AO2 T02460213
KMKN 241155Z AUTO 10SM CLR 25/22 A2980 RMK AO2 T02450215 10296 20245
KMKN 241135Z AUTO 10SM SCT020 25/22 A2979 RMK AO2 T02490218
KMKN 241115Z AUTO 10SM OVC018 25/22 A2979 RMK AO2 T02530221
KMKN 241055Z AUTO 10SM OVC018 26/22 A2978 RMK AO2 T02560223
KMKN 241035Z AUTO 10SM OVC018 26/23 A2978 RMK AO2 T02580225
KMKN 241015Z AUTO 10SM OVC018 26/23 A2977 RMK AO2 T02610226
KMKN 240955Z AUTO 10SM BKN020 26/23 A2977 RMK AO2 T02630225
KMKN 240935Z AUTO 10SM CLR 27/23 A2977 RMK AO2 T02650225
KMKN 240915Z AUTO 10SM CLR 26/23 A2976 RMK AO2 T02640225
KMKN 240855Z AUTO 10SM CLR 27/22 A2975 RMK AO2 T02670223
KMKN 240835Z AUTO 10SM CLR 27/21 A2973 RMK AO2 T02650207
KMKN 240815Z AUTO 10SM CLR 27/18 A2970 RMK AO2 T02650178
KMKN 240755Z AUTO 10SM CLR 27/18 A2972 RMK AO2 T02660175
KMKN 240735Z AUTO 10SM CLR 27/16 A2977 RMK AO2 T02700156
KMKN 240715Z AUTO 21012G20KT 10SM CLR 28/15 A2980 RMK AO2 T02750152
KMKN 240655Z AUTO 19014G18KT 10SM CLR 29/14 A2982 RMK AO2 LTG DSNT NE T02910137
KMKN 240635Z AUTO 20012G24KT 10SM CLR 28/15 A2984 RMK AO2 LTG DSNT NE T02830145
KMKN 240615Z AUTO 07012G17KT 10SM VCTS SCT120 27/15 A2977 RMK AO2 LTG DSNT NE AND SE T02740149
KMKN 240555Z AUTO 24009KT 10SM SCT120 28/15 A2984 RMK AO2 LTG DSNT N NE AND S T02800148 10368 20279 403870251
KMKN 240535Z AUTO 23011G15KT 10SM VCTS SCT085 SCT110 29/15 A2985 RMK AO2 LTG DSNT ALQS T02850150
KMKN 240515Z AUTO 21010G21KT 170V230 10SM SCT085 29/15 A2986 RMK AO2 LTG DSNT ALQS T02880151
KMKN 240455Z AUTO 19012G19KT 160V220 10SM VCTS SCT044 SCT060 SCT095 30/15 A2986 RMK AO2 LTG DSNT S THRU N T02950147
KMKN 240435Z AUTO 19010G21KT 10SM SCT044 SCT050 BKN065 30/21 A2986 RMK AO2 LTG DSNT SW THRU N T03030213
KMKN 240415Z AUTO 18014G22KT 10SM CLR 30/21 A2983 RMK AO2 LTG DSNT W AND NW T03020212
KMKN 240355Z AUTO 16013G26KT 10SM CLR 31/21 A2981 RMK AO2 LTG DSNT SW AND W T03050210
KMKN 240335Z AUTO 15015G25KT 10SM CLR 31/21 A2978 RMK AO2 LTG DSNT N AND NW T03070209
KMKN 240315Z AUTO 16018G31KT 10SM CLR 31/21 A2977 RMK AO2 LTG DSNT N T03100207
KMKN 240255Z AUTO 15014G25KT 10SM CLR 31/20 A2975 RMK AO2 LTG DSNT NW T03130204
KMKN 240235Z AUTO 15021G28KT 10SM CLR 32/20 A2972 RMK AO2 T03170201
KMKN 240215Z AUTO 14016G24KT 10SM CLR 32/20 A2972 RMK AO2 T03210200
KMKN 240155Z AUTO 15014G25KT 10SM CLR 33/20 A2973 RMK AO2 LTG DSNT NW T03270199
KMKN 240135Z AUTO 15013G21KT 10SM CLR 33/20 A2972 RMK AO2 T03310198
KMKN 240115Z AUTO 15015G21KT 10SM CLR 34/20 A2970 RMK AO2 LTG DSNT NW T03380196
KMKN 240100Z AUTO 15019G26KT 10SM CLR 35/20 A2970 RMK AO2 LTG DSNT W AND NW T03460195
KMKN 240035Z AUTO 14014G23KT 10SM CLR 36/19 A2971 RMK AO2 T03560194
KMKN 240015Z AUTO 14018G23KT 10SM CLR 36/19 A2971 RMK AO2 T03620191
KMKN 232355Z AUTO 15016G23KT 10SM CLR 37/19 A2971 RMK AO2 T03700190 10387 20353
KMKN 232335Z AUTO 15012KT 10SM CLR 38/19 A2971 RMK AO2 T03750189
KMKN 232315Z AUTO 17012G25KT 10SM CLR 38/19 A2971 RMK AO2 T03800185
KMKN 232255Z AUTO 16016G25KT 10SM CLR 38/19 A2971 RMK AO2 T03780185
KMKN 232235Z AUTO 15011G21KT 10SM CLR 38/19 A2972 RMK AO2 T03820189
KMKN 232215Z AUTO 15013G23KT 10SM CLR 38/19 A2972 RMK AO2 T03820189
KMKN 232155Z AUTO 15016G24KT 10SM CLR 38/19 A2973 RMK AO2 T03830191
KMKN 232135Z AUTO 17012G19KT 10SM CLR 39/19 A2973 RMK AO2 T03850193
KMKN 232115Z AUTO 15017G27KT 10SM CLR 38/19 A2974 RMK AO2 T03800193
KMKN 232055Z AUTO 16013G27KT 10SM CLR 38/20 A2974 RMK AO2 T03800195
KMKN 232035Z AUTO 15014G22KT 10SM CLR 38/20 A2975 RMK AO2 T03790195
KMKN 232015Z AUTO 18016G28KT 10SM CLR 38/20 A2975 RMK AO2 T03760196
KMKN 231955Z AUTO 14015G19KT 10SM CLR 38/20 A2976 RMK AO2 T03810198
KMKN 231935Z AUTO 17012G21KT 10SM SCT065 38/19 A2977 RMK AO2 T03760193
KMKN 231915Z AUTO 18013G21KT 130V200 10SM CLR 37/19 A2979 RMK AO2 T03680191
KMKN 231855Z AUTO 18015G22KT 10SM SCT060 37/19 A2980 RMK AO2 T03680191
KMKN 231835Z AUTO 17013G23KT 140V200 10SM CLR 36/19 A2981 RMK AO2 T03600190
KMKN 231815Z AUTO 19012G23KT 150V210 10SM CLR 36/19 A2982 RMK AO2 T03600187
KMKN 231755Z AUTO 18016G23KT 10SM CLR 35/19 A2982 RMK AO2 T03520185 10355 20255
KMKN 231735Z AUTO 19014G24KT 10SM CLR 35/18 A2983 RMK AO2 T03510184
KMKN 231715Z AUTO 17016G25KT 10SM CLR 34/19 A2983 RMK AO2 T03440185
KMKN 231655Z AUTO 17016G23KT 10SM CLR 34/19 A2984 RMK AO2 T03440187
KMKN 231635Z AUTO 19010G21KT 140V210 10SM CLR 34/19 A2984 RMK AO2 T03380194
KMKN 231615Z AUTO 17015G26KT 10SM SCT045 33/20 A2984 RMK AO2 T03330197
KMKN 231555Z AUTO 15011G16KT 130V190 10SM SCT041 SCT047 33/21 A2985 RMK AO2 T03270210
KMKN 231535Z AUTO 20010G18KT 10SM SCT041 31/21 A2985 RMK AO2 T03110210
KMKN 231515Z AUTO 20011KT 10SM SCT033 SCT044 30/21 A2985 RMK AO2 T03000212
KMKN 231455Z AUTO 18012G18KT 10SM BKN030 BKN035 30/22 A2985 RMK AO2 T03000220
KMKN 231435Z AUTO 17010G18KT 130V200 10SM BKN028 OVC034 30/22 A2985 RMK AO2 T03030222
KMKN 231415Z AUTO 18012G16KT 130V200 10SM OVC026 29/22 A2985 RMK AO2 T02890223
KMKN 231355Z AUTO 17012G17KT 10SM BKN024 OVC037 29/23 A2984 RMK AO2 T02880227
KMKN 231335Z AUTO 17012G16KT 140V200 10SM OVC037 28/23 A2984 RMK AO2 T02810230
KMKN 231315Z AUTO 10SM SCT023 BKN035 27/23 A2984 RMK AO2 T02720230
KMKN 231255Z AUTO 10SM SCT023 BKN031 27/23 A2984 RMK AO2 LTG DSNT N T02660230
KMKN 231235Z AUTO 10SM OVC029 27/23 A2984 RMK AO2 T02660230
KMKN 231215Z AUTO 10SM OVC027 26/23 A2984 RMK AO2 T02590227
KMKN 231155Z AUTO 12009KT 10SM BKN024 OVC030 26/22 A2983 RMK AO2 T02550223 10295 20251
KMKN 231135Z AUTO 10SM BKN022 25/22 A2983 RMK AO2 T02510221
KMKN 231115Z AUTO 10SM SCT022 26/22 A2982 RMK AO2 LTG DSNT N T02590221
KMKN 231055Z AUTO 10SM CLR 26/22 A2983 RMK AO2 T02580217
KMKN 231035Z AUTO 10SM CLR 27/22 A2983 RMK AO2 T02650217
KMKN 231015Z AUTO 10SM CLR 27/22 A2979 RMK AO2 T02670215
KMKN 230955Z AUTO 10SM CLR 27/21 A2978 RMK AO2 T02700213
KMKN 230935Z AUTO 20010KT 140V220 10SM CLR 27/21 A2977 RMK AO2 T02720212
KMKN 230915Z AUTO 20010KT 160V220 10SM CLR 27/21 A2977 RMK AO2 T02730212
KMKN 230855Z AUTO 19013KT 10SM CLR 28/21 A2976 RMK AO2 T02760211